createdAt,value
2022-12-24T00:01:21.072Z,99459.59
2022-12-24T00:04:24.876Z,99453.44
2022-12-24T00:07:28.705Z,99460.59
2022-12-24T00:10:33.987Z,99467.28
2022-12-24T00:13:37.825Z,99467.53
2022-12-24T00:16:41.706Z,99464.97
2022-12-24T00:19:45.452Z,99473.19
2022-12-24T00:22:49.171Z,99466.59
2022-12-24T00:25:54.318Z,99470.63
2022-12-24T00:28:58.067Z,99476.09
2022-12-24T00:32:03.317Z,99473.13
2022-12-24T00:35:08.051Z,99467.56
2022-12-24T00:38:11.849Z,99477.91
2022-12-24T00:41:29.467Z,99471.00
2022-12-24T00:44:33.303Z,99468.97
2022-12-24T00:47:37.070Z,99461.16
2022-12-24T00:50:40.785Z,99461.69
2022-12-24T00:53:44.844Z,99457.50
2022-12-24T00:56:49.933Z,99459.34
2022-12-24T00:59:53.590Z,99465.09
2022-12-24T01:02:57.526Z,99462.44
2022-12-24T01:06:01.195Z,99461.06
2022-12-24T01:09:05.019Z,99449.72
2022-12-24T01:12:10.044Z,99462.44
2022-12-24T01:15:16.076Z,99459.13
2022-12-24T01:18:19.695Z,99444.31
2022-12-24T01:21:23.472Z,99439.47
2022-12-24T01:24:28.649Z,99433.00
2022-12-24T01:27:34.030Z,99436.19
2022-12-24T01:30:37.643Z,99443.38
2022-12-24T01:33:41.553Z,99435.41
2022-12-24T01:36:45.171Z,99437.28
2022-12-24T01:39:48.716Z,99438.50
2022-12-24T01:43:12.528Z,99438.88
2022-12-24T01:46:20.507Z,99435.09
2022-12-24T01:49:24.618Z,99436.38
2022-12-24T01:52:31.293Z,99440.78
2022-12-24T01:55:34.862Z,99437.09
2022-12-24T01:58:42.608Z,99436.53
2022-12-24T02:01:47.518Z,99435.81
2022-12-24T02:04:57.924Z,99427.81
2022-12-24T02:08:03.864Z,99430.00
2022-12-24T02:11:15.729Z,99436.25
2022-12-24T02:14:20.936Z,99429.34
2022-12-24T02:17:31.612Z,99439.66
2022-12-24T02:21:12.236Z,99425.34
2022-12-24T02:24:43.928Z,99424.50
2022-12-24T02:27:57.652Z,99434.91
2022-12-24T02:31:06.984Z,99434.22
2022-12-24T02:34:18.398Z,99436.59
2022-12-24T02:37:27.864Z,99446.38
2022-12-24T02:40:36.341Z,99437.72
2022-12-24T02:43:43.793Z,99437.63
2022-12-24T02:46:50.038Z,99445.25
2022-12-24T02:49:55.027Z,99452.41
2022-12-24T02:52:58.563Z,99446.78
2022-12-24T02:56:30.626Z,99457.44
2022-12-24T02:59:47.224Z,99448.84
2022-12-24T03:03:10.446Z,99449.88
2022-12-24T03:06:21.240Z,99448.84
2022-12-24T03:09:28.450Z,99439.72
2022-12-24T03:12:37.237Z,99441.31
2022-12-24T03:15:41.502Z,99437.44
2022-12-24T03:18:50.688Z,99435.28
2022-12-24T03:21:58.113Z,99429.22
2022-12-24T03:25:01.996Z,99421.19
2022-12-24T03:28:07.895Z,99411.34
2022-12-24T03:31:12.370Z,99413.16
2022-12-24T03:34:21.569Z,99422.03
2022-12-24T03:37:26.937Z,99420.81
2022-12-24T03:40:30.874Z,99419.69
2022-12-24T03:43:34.498Z,99419.06
2022-12-24T03:46:38.100Z,99424.09
2022-12-24T03:49:43.094Z,99424.28
2022-12-24T03:52:46.809Z,99421.22
2022-12-24T03:55:51.283Z,99405.16
2022-12-24T03:58:55.644Z,99409.88
2022-12-24T04:01:59.425Z,99413.75
2022-12-24T04:05:05.026Z,99418.13
2022-12-24T04:08:09.171Z,99419.66
2022-12-24T04:11:14.917Z,99425.97
2022-12-24T04:14:18.883Z,99422.63
2022-12-24T04:17:22.430Z,99417.66
2022-12-24T04:20:27.344Z,99419.31
2022-12-24T04:23:32.323Z,99420.94
2022-12-24T04:26:35.998Z,99428.31
2022-12-24T04:29:41.149Z,99425.97
2022-12-24T04:32:44.741Z,99430.06
2022-12-24T04:35:51.095Z,99434.16
2022-12-24T04:38:54.639Z,99427.84
2022-12-24T04:42:00.504Z,99427.19
2022-12-24T04:45:04.242Z,99425.84
2022-12-24T04:48:07.861Z,99447.84
2022-12-24T04:51:13.410Z,99443.06
2022-12-24T04:54:16.956Z,99433.72
2022-12-24T04:57:20.557Z,99423.69
2022-12-24T05:00:24.401Z,99427.19
2022-12-24T05:03:29.320Z,99430.78
2022-12-24T05:06:35.016Z,99438.22
2022-12-24T05:09:38.774Z,99433.25
2022-12-24T05:12:42.384Z,99438.47
2022-12-24T05:15:47.093Z,99438.88
2022-12-24T05:18:51.264Z,99441.22
2022-12-24T05:22:11.394Z,99437.53
2022-12-24T05:25:32.539Z,99438.03
2022-12-24T05:28:36.076Z,99435.75
2022-12-24T05:31:40.733Z,99444.66
2022-12-24T05:34:44.399Z,99444.78
2022-12-24T05:37:49.356Z,99441.78
2022-12-24T05:40:53.035Z,99446.59
2022-12-24T05:43:56.909Z,99449.56
2022-12-24T05:47:00.734Z,99445.63
2022-12-24T05:50:04.430Z,99448.53
2022-12-24T05:53:09.809Z,99442.69
2022-12-24T05:56:16.418Z,99457.44
2022-12-24T05:59:20.097Z,99459.56
2022-12-24T06:02:24.376Z,99459.78
2022-12-24T06:05:28.154Z,99458.66
2022-12-24T06:08:35.181Z,99464.50
2022-12-24T06:11:39.154Z,99470.88
2022-12-24T06:14:43.031Z,99483.16
2022-12-24T06:17:46.802Z,99482.56
2022-12-24T06:20:52.592Z,99474.38
2022-12-24T06:23:58.116Z,99478.44
2022-12-24T06:27:01.916Z,99476.09
2022-12-24T06:30:07.193Z,99484.31
2022-12-24T06:33:10.940Z,99476.56
2022-12-24T06:36:18.533Z,99476.06
2022-12-24T06:39:23.940Z,99479.44
2022-12-24T06:42:27.705Z,99489.19
2022-12-24T06:45:32.395Z,99485.81
2022-12-24T06:48:36.341Z,99496.56
2022-12-24T06:51:40.082Z,99483.16
2022-12-24T06:54:45.192Z,99480.81
2022-12-24T06:57:48.950Z,99480.81
2022-12-24T07:00:52.614Z,99481.47
2022-12-24T07:03:56.494Z,99481.72
2022-12-24T07:07:00.254Z,99469.13
2022-12-24T07:10:06.319Z,99477.75
2022-12-24T07:13:10.118Z,99481.63
2022-12-24T07:16:13.982Z,99473.13
2022-12-24T07:19:18.058Z,99486.19
2022-12-24T07:22:21.893Z,99479.34
2022-12-24T07:25:28.185Z,99496.84
2022-12-24T07:28:32.912Z,99481.56
2022-12-24T07:31:36.720Z,99478.63
2022-12-24T07:34:41.842Z,99479.72
2022-12-24T07:37:45.642Z,99476.91
2022-12-24T07:40:50.812Z,99487.19
2022-12-24T07:43:54.659Z,99484.16
2022-12-24T07:46:58.466Z,99482.47
2022-12-24T07:50:02.382Z,99491.25
2022-12-24T07:53:06.305Z,99489.34
2022-12-24T07:56:13.118Z,99494.03
2022-12-24T07:59:17.131Z,99502.41
2022-12-24T08:02:20.973Z,99506.22
2022-12-24T08:05:24.853Z,99514.47
2022-12-24T08:08:29.103Z,99516.66
2022-12-24T08:11:34.340Z,99514.59
2022-12-24T08:14:38.163Z,99527.22
2022-12-24T08:17:42.004Z,99525.44
2022-12-24T08:20:45.810Z,99529.97
2022-12-24T08:23:49.658Z,99532.00
2022-12-24T08:26:54.858Z,99532.69
2022-12-24T08:29:58.502Z,99522.69
2022-12-24T08:33:02.548Z,99527.34
2022-12-24T08:36:06.931Z,99529.13
2022-12-24T08:39:11.682Z,99526.66
2022-12-24T08:42:16.945Z,99520.50
2022-12-24T08:45:21.238Z,99520.50
2022-12-24T08:48:25.814Z,99513.22
2022-12-24T08:51:29.413Z,99514.47
2022-12-24T08:54:33.134Z,99509.53
2022-12-24T08:57:39.178Z,99506.13
2022-12-24T09:00:42.929Z,99500.44
2022-12-24T09:03:47.687Z,99505.03
2022-12-24T09:06:51.539Z,99500.88
2022-12-24T09:09:55.456Z,99504.38
2022-12-24T09:13:00.739Z,99497.16
2022-12-24T09:16:05.204Z,99496.09
2022-12-24T09:19:10.699Z,99495.56
2022-12-24T09:22:15.259Z,99486.97
2022-12-24T09:25:19.183Z,99486.25
2022-12-24T09:28:25.201Z,99484.13
2022-12-24T09:31:29.542Z,99485.66
2022-12-24T09:34:33.342Z,99476.56
2022-12-24T09:37:37.602Z,99474.72
2022-12-24T09:40:41.952Z,99468.44
2022-12-24T09:43:51.408Z,99473.13
2022-12-24T09:46:56.263Z,99461.19
2022-12-24T09:50:04.881Z,99457.00
2022-12-24T09:53:17.778Z,99451.47
2022-12-24T09:56:25.459Z,99453.66
2022-12-24T09:59:40.882Z,99444.97
2022-12-24T10:02:45.056Z,99441.31
2022-12-24T10:06:00.101Z,99452.38
2022-12-24T10:09:13.184Z,99437.22
2022-12-24T10:12:24.371Z,99436.22
2022-12-24T10:15:32.933Z,99437.06
2022-12-24T10:18:49.478Z,99435.81
2022-12-24T10:22:06.154Z,99429.41
2022-12-24T10:25:19.242Z,99420.13
2022-12-24T10:28:29.838Z,99421.31
2022-12-24T10:31:38.236Z,99409.53
2022-12-24T10:34:45.282Z,99424.97
2022-12-24T10:37:51.243Z,99418.88
2022-12-24T10:40:57.679Z,99413.63
2022-12-24T10:44:02.146Z,99411.59
2022-12-24T10:47:09.761Z,99408.66
2022-12-24T10:50:20.407Z,99407.94
2022-12-24T10:53:29.704Z,99410.88
2022-12-24T10:56:33.550Z,99409.84
2022-12-24T10:59:50.899Z,99401.41
2022-12-24T11:03:22.563Z,99397.84
2022-12-24T11:06:26.357Z,99396.00
2022-12-24T11:09:32.583Z,99415.25
2022-12-24T11:12:39.717Z,99408.50
2022-12-24T11:15:43.570Z,99410.41
2022-12-24T11:18:52.275Z,99408.34
2022-12-24T11:22:02.840Z,99398.78
2022-12-24T11:25:20.253Z,99405.44
2022-12-24T11:28:26.964Z,99399.94
2022-12-24T11:31:33.090Z,99395.53
2022-12-24T11:34:38.348Z,99390.44
2022-12-24T11:37:42.416Z,99384.78
2022-12-24T11:40:48.018Z,99382.00
2022-12-24T11:43:59.495Z,99380.59
2022-12-24T11:47:03.170Z,99379.31
2022-12-24T11:50:30.306Z,99376.28
2022-12-24T11:53:40.259Z,99385.16
2022-12-24T11:56:47.546Z,99375.72
2022-12-24T11:59:52.534Z,99373.72
2022-12-24T12:03:01.332Z,99377.25
2022-12-24T12:06:18.527Z,99374.75
2022-12-24T12:09:26.236Z,99370.69
2022-12-24T12:12:34.695Z,99370.25
2022-12-24T12:15:44.718Z,99364.44
2022-12-24T12:18:54.418Z,99372.44
2022-12-24T12:22:02.498Z,99369.22
2022-12-24T12:25:13.642Z,99357.63
2022-12-24T12:28:22.804Z,99364.19
2022-12-24T12:31:31.145Z,99364.09
2022-12-24T12:34:40.729Z,99361.59
2022-12-24T12:37:50.006Z,99374.94
2022-12-24T12:41:13.948Z,99370.59
2022-12-24T12:44:31.925Z,99377.25
2022-12-24T12:47:49.532Z,99367.66
2022-12-24T12:51:00.124Z,99374.84
2022-12-24T12:54:23.967Z,99365.75
2022-12-24T12:57:34.635Z,99363.13
2022-12-24T13:00:42.316Z,99362.03
2022-12-24T13:04:21.828Z,99364.81
2022-12-24T13:07:55.275Z,99374.44
2022-12-24T13:11:17.455Z,99372.69
2022-12-24T13:14:39.570Z,99373.00
2022-12-24T13:18:06.076Z,99382.16
2022-12-24T13:21:17.908Z,99389.50
2022-12-24T13:24:26.206Z,99402.31
2022-12-24T13:27:33.571Z,99405.38
2022-12-24T13:30:39.840Z,99411.94
2022-12-24T13:33:50.797Z,99414.69
2022-12-24T13:37:06.214Z,99411.03
2022-12-24T13:40:23.733Z,99410.53
2022-12-24T13:44:03.676Z,99414.13
2022-12-24T13:47:28.132Z,99409.88
2022-12-24T13:50:39.283Z,99404.84
2022-12-24T13:53:45.097Z,99406.50
2022-12-24T13:56:49.147Z,99408.94
2022-12-24T14:00:01.297Z,99414.69
2022-12-24T14:03:17.205Z,99414.16
2022-12-24T14:06:25.660Z,99412.47
2022-12-24T14:09:30.954Z,99416.56
2022-12-24T14:12:48.732Z,99414.66
2022-12-24T14:16:10.379Z,99416.50
2022-12-24T14:19:16.701Z,99418.00
2022-12-24T14:22:30.950Z,99416.28
2022-12-24T14:25:35.928Z,99419.03
2022-12-24T14:28:46.420Z,99417.69
2022-12-24T14:31:54.992Z,99411.97
2022-12-24T14:35:08.449Z,99411.66
2022-12-24T14:38:19.007Z,99415.53
2022-12-24T14:41:36.045Z,99415.16
2022-12-24T14:44:48.770Z,99416.44
2022-12-24T14:48:05.521Z,99422.03
2022-12-24T14:51:19.685Z,99425.28
2022-12-24T14:54:36.956Z,99430.44
2022-12-24T14:57:40.830Z,99429.63
2022-12-24T15:00:45.073Z,99425.97
2022-12-24T15:04:02.105Z,99423.13
2022-12-24T15:07:07.962Z,99421.19
2022-12-24T15:10:27.569Z,99421.31
2022-12-24T15:13:37.286Z,99435.19
2022-12-24T15:16:42.065Z,99440.25
2022-12-24T15:19:52.761Z,99430.13
2022-12-24T15:22:59.142Z,99434.34
2022-12-24T15:26:22.658Z,99444.41
2022-12-24T15:29:29.180Z,99447.97
2022-12-24T15:32:35.821Z,99456.75
2022-12-24T15:35:52.871Z,99456.50
2022-12-24T15:38:59.223Z,99458.28
2022-12-24T15:42:15.324Z,99460.34
2022-12-24T15:45:27.173Z,99462.25
2022-12-24T15:48:33.367Z,99462.03
2022-12-24T15:51:40.449Z,99459.53
2022-12-24T15:54:49.620Z,99473.97
2022-12-24T15:57:56.376Z,99480.19
2022-12-24T16:01:06.513Z,99480.03
2022-12-24T16:04:15.313Z,99483.72
2022-12-24T16:07:48.403Z,99489.88
2022-12-24T16:10:55.538Z,99497.72
2022-12-24T16:14:07.039Z,99508.50
2022-12-24T16:17:20.664Z,99496.38
2022-12-24T16:20:24.685Z,99513.59
2022-12-24T16:23:40.257Z,99514.41
2022-12-24T16:26:44.015Z,99525.19
2022-12-24T16:29:47.711Z,99522.47
2022-12-24T16:32:52.407Z,99522.06
2022-12-24T16:35:56.672Z,99529.75
2022-12-24T16:39:19.164Z,99543.22
2022-12-24T16:42:40.393Z,99541.91
2022-12-24T16:45:45.724Z,99549.44
2022-12-24T16:48:50.568Z,99557.69
2022-12-24T16:51:54.529Z,99558.38
2022-12-24T16:54:59.761Z,99564.25
2022-12-24T16:58:03.354Z,99572.59
2022-12-24T17:01:11.120Z,99574.94
2022-12-24T17:04:15.598Z,99574.09
2022-12-24T17:07:20.901Z,99579.09
2022-12-24T17:10:26.339Z,99576.84
2022-12-24T17:13:30.002Z,99575.78
2022-12-24T17:16:33.826Z,99574.50
2022-12-24T17:19:37.976Z,99582.34
2022-12-24T17:22:41.832Z,99583.59
2022-12-24T17:25:48.031Z,99588.78
2022-12-24T17:28:55.613Z,99581.22
2022-12-24T17:31:59.362Z,99579.84
2022-12-24T17:35:03.231Z,99580.09
2022-12-24T17:38:07.062Z,99586.56
2022-12-24T17:41:19.537Z,99585.16
2022-12-24T17:44:23.672Z,99581.72
2022-12-24T17:47:27.472Z,99580.19
2022-12-24T17:50:31.308Z,99580.97
2022-12-24T17:53:35.595Z,99582.25
2022-12-24T17:56:40.791Z,99576.16
2022-12-24T17:59:44.453Z,99574.50
2022-12-24T18:02:48.453Z,99577.00
2022-12-24T18:05:53.226Z,99574.97
2022-12-24T18:08:58.701Z,99570.00
2022-12-24T18:12:03.979Z,99572.72
2022-12-24T18:15:08.931Z,99583.59
2022-12-24T18:18:12.638Z,99585.50
2022-12-24T18:21:16.679Z,99591.41
2022-12-24T18:24:20.923Z,99598.13
2022-12-24T18:27:26.112Z,99603.03
2022-12-24T18:30:29.871Z,99609.38
2022-12-24T18:33:35.598Z,99611.16
2022-12-24T18:36:39.590Z,99598.34
2022-12-24T18:39:47.880Z,99603.59
2022-12-24T18:42:53.110Z,99606.97
2022-12-24T18:45:56.906Z,99612.84
2022-12-24T18:49:01.501Z,99611.47
2022-12-24T18:52:05.421Z,99619.69
2022-12-24T18:55:10.234Z,99619.94
2022-12-24T18:58:15.402Z,99625.69
2022-12-24T19:01:25.566Z,99631.19
2022-12-24T19:04:30.170Z,99627.88
2022-12-24T19:07:33.978Z,99630.19
2022-12-24T19:10:38.789Z,99620.72
2022-12-24T19:13:47.230Z,99624.00
2022-12-24T19:16:51.632Z,99633.63
2022-12-24T19:19:55.481Z,99629.22
2022-12-24T19:22:59.263Z,99625.66
2022-12-24T19:26:03.279Z,99632.66
2022-12-24T19:29:08.421Z,99630.44
2022-12-24T19:32:12.308Z,99629.34
2022-12-24T19:35:16.086Z,99637.50
2022-12-24T19:38:19.778Z,99633.81
2022-12-24T19:41:26.011Z,99637.84
2022-12-24T19:44:31.382Z,99642.66
2022-12-24T19:47:35.216Z,99630.72
2022-12-24T19:50:38.973Z,99635.09
2022-12-24T19:53:42.900Z,99635.09
2022-12-24T19:56:46.697Z,99636.94
2022-12-24T19:59:51.967Z,99634.03
2022-12-24T20:02:55.924Z,99638.97
2022-12-24T20:05:59.880Z,99644.00
2022-12-24T20:09:06.356Z,99657.47
2022-12-24T20:12:10.109Z,99663.66
2022-12-24T20:15:15.377Z,99676.81
2022-12-24T20:18:19.315Z,99675.66
2022-12-24T20:21:23.564Z,99680.63
2022-12-24T20:24:28.220Z,99677.59
2022-12-24T20:27:32.108Z,99688.72
2022-12-24T20:30:40.546Z,99690.06
2022-12-24T20:33:45.811Z,99688.03
2022-12-24T20:36:49.580Z,99706.63
2022-12-24T20:39:53.508Z,99718.19
2022-12-24T20:42:57.356Z,99714.75
2022-12-24T20:46:02.527Z,99728.88
2022-12-24T20:49:06.804Z,99730.00
2022-12-24T20:52:10.599Z,99732.19
2022-12-24T20:55:15.734Z,99726.44
2022-12-24T20:58:19.845Z,99719.84
2022-12-24T21:01:28.813Z,99714.22
2022-12-24T21:04:32.846Z,99708.00
2022-12-24T21:07:39.195Z,99704.31
2022-12-24T21:10:44.067Z,99703.22
2022-12-24T21:13:46.790Z,99702.69
2022-12-24T21:16:52.759Z,99694.97
2022-12-24T21:19:57.422Z,99699.91
2022-12-24T21:23:01.906Z,99698.25
2022-12-24T21:26:06.898Z,99689.88
2022-12-24T21:29:14.914Z,99679.59
2022-12-24T21:32:20.138Z,99674.88
2022-12-24T21:35:23.776Z,99678.59
2022-12-24T21:38:27.745Z,99672.13
2022-12-24T21:41:31.335Z,99676.53
2022-12-24T21:44:37.048Z,99667.75
2022-12-24T21:47:44.830Z,99667.69
2022-12-24T21:50:57.437Z,99675.34
2022-12-24T21:54:18.534Z,99666.97
2022-12-24T21:57:39.396Z,99667.53
2022-12-24T22:00:43.168Z,99667.97
2022-12-24T22:03:50.825Z,99683.59
2022-12-24T22:07:11.815Z,99682.34
2022-12-24T22:10:33.234Z,99677.69
2022-12-24T22:13:37.047Z,99687.47
2022-12-24T22:16:40.765Z,99680.03
2022-12-24T22:19:46.135Z,99677.53
2022-12-24T22:22:50.009Z,99684.97
2022-12-24T22:25:54.949Z,99689.66
2022-12-24T22:28:58.837Z,99691.31
2022-12-24T22:32:02.613Z,99685.81
2022-12-24T22:35:08.471Z,99686.63
2022-12-24T22:38:12.895Z,99691.03
2022-12-24T22:41:16.941Z,99687.50
2022-12-24T22:44:20.729Z,99690.25
2022-12-24T22:47:24.441Z,99690.16
2022-12-24T22:50:29.415Z,99686.16
2022-12-24T22:53:33.044Z,99684.75
2022-12-24T22:56:40.930Z,99699.63
2022-12-24T22:59:47.423Z,99693.84
2022-12-24T23:02:51.071Z,99696.31
2022-12-24T23:06:00.809Z,99685.63
2022-12-24T23:09:06.140Z,99690.00
2022-12-24T23:12:10.267Z,99691.91
2022-12-24T23:15:12.995Z,99689.84
2022-12-24T23:18:16.728Z,99697.66
2022-12-24T23:21:22.083Z,99690.53
2022-12-24T23:24:25.699Z,99695.75
2022-12-24T23:27:29.394Z,99697.66
2022-12-24T23:30:33.115Z,99695.97
2022-12-24T23:33:37.137Z,99706.16
2022-12-24T23:36:42.444Z,99701.59
2022-12-24T23:39:46.560Z,99708.63
2022-12-24T23:42:50.173Z,99718.94
2022-12-24T23:45:55.127Z,99721.81
2022-12-24T23:48:58.718Z,99729.53
2022-12-24T23:52:04.377Z,99738.97
2022-12-24T23:55:08.738Z,99740.13
2022-12-24T23:58:15.102Z,99741.19
